sensor_id;sensor_type;location;lat;lon;timestamp;pressure;altitude;pressure_sealevel;temperature;humidity
68634;BME280;55625;47.072;22.192;2023-12-20T00:01:49;99915.53;;;0.00;100.00
68634;BME280;55625;47.072;22.192;2023-12-20T00:04:15;99909.56;;;0.02;100.00
68634;BME280;55625;47.072;22.192;2023-12-20T00:06:41;99905.16;;;0.01;100.00
68634;BME280;55625;47.072;22.192;2023-12-20T00:09:07;99896.00;;;0.00;100.00
68634;BME280;55625;47.072;22.192;2023-12-20T00:11:33;99890.41;;;0.00;100.00
68634;BME280;55625;47.072;22.192;2023-12-20T00:13:59;99892.88;;;0.05;100.00
68634;BME280;55625;47.072;22.192;2023-12-20T00:16:25;99900.06;;;0.06;100.00
68634;BME280;55625;47.072;22.192;2023-12-20T00:18:51;99888.47;;;0.04;100.00
68634;BME280;55625;47.072;22.192;2023-12-20T00:21:17;99889.59;;;-0.01;100.00
68634;BME280;55625;47.072;22.192;2023-12-20T00:23:43;99889.59;;;-0.01;100.00
68634;BME280;55625;47.072;22.192;2023-12-20T00:26:09;99882.78;;;-0.03;100.00
68634;BME280;55625;47.072;22.192;2023-12-20T00:28:35;99882.72;;;-0.07;100.00
68634;BME280;55625;47.072;22.192;2023-12-20T00:31:00;99877.91;;;-0.10;100.00
68634;BME280;55625;47.072;22.192;2023-12-20T00:33:26;99877.53;;;-0.08;100.00
68634;BME280;55625;47.072;22.192;2023-12-20T00:35:52;99869.53;;;-0.10;100.00
68634;BME280;55625;47.072;22.192;2023-12-20T00:38:18;99864.72;;;-0.13;100.00
68634;BME280;55625;47.072;22.192;2023-12-20T00:40:44;99869.88;;;-0.15;100.00
68634;BME280;55625;47.072;22.192;2023-12-20T00:43:10;99871.44;;;-0.17;100.00
68634;BME280;55625;47.072;22.192;2023-12-20T00:45:36;99858.25;;;-0.20;100.00
68634;BME280;55625;47.072;22.192;2023-12-20T00:48:02;99857.84;;;-0.22;100.00
68634;BME280;55625;47.072;22.192;2023-12-20T00:50:29;99852.25;;;-0.22;100.00
68634;BME280;55625;47.072;22.192;2023-12-20T00:52:54;99849.03;;;-0.24;100.00
68634;BME280;55625;47.072;22.192;2023-12-20T00:55:20;99841.88;;;-0.25;100.00
68634;BME280;55625;47.072;22.192;2023-12-20T00:57:46;99837.78;;;-0.32;100.00
68634;BME280;55625;47.072;22.192;2023-12-20T01:00:13;99837.34;;;-0.34;100.00
68634;BME280;55625;47.072;22.192;2023-12-20T01:02:40;99836.91;;;-0.36;100.00
68634;BME280;55625;47.072;22.192;2023-12-20T01:05:06;99829.69;;;-0.40;100.00
68634;BME280;55625;47.072;22.192;2023-12-20T01:07:33;99831.31;;;-0.39;100.00
68634;BME280;55625;47.072;22.192;2023-12-20T01:09:59;99824.91;;;-0.40;100.00
68634;BME280;55625;47.072;22.192;2023-12-20T01:12:25;99808.16;;;-0.43;100.00
68634;BME280;55625;47.072;22.192;2023-12-20T01:14:51;99813.78;;;-0.40;100.00
68634;BME280;55625;47.072;22.192;2023-12-20T01:17:16;99806.59;;;-0.41;100.00
68634;BME280;55625;47.072;22.192;2023-12-20T01:19:42;99801.00;;;-0.41;100.00
68634;BME280;55625;47.072;22.192;2023-12-20T01:22:08;99791.47;;;-0.40;100.00
68634;BME280;55625;47.072;22.192;2023-12-20T01:24:34;99790.25;;;-0.42;100.00
68634;BME280;55625;47.072;22.192;2023-12-20T01:27:00;99776.69;;;-0.44;100.00
68634;BME280;55625;47.072;22.192;2023-12-20T01:29:26;99769.13;;;-0.43;100.00
68634;BME280;55625;47.072;22.192;2023-12-20T01:31:51;99773.09;;;-0.44;100.00
68634;BME280;55625;47.072;22.192;2023-12-20T01:34:18;99769.97;;;-0.39;100.00
68634;BME280;55625;47.072;22.192;2023-12-20T01:36:44;99769.63;;;-0.34;100.00
68634;BME280;55625;47.072;22.192;2023-12-20T01:39:10;99766.81;;;-0.38;100.00
68634;BME280;55625;47.072;22.192;2023-12-20T01:41:36;99758.78;;;-0.43;100.00
68634;BME280;55625;47.072;22.192;2023-12-20T01:44:01;99748.81;;;-0.44;100.00
68634;BME280;55625;47.072;22.192;2023-12-20T01:46:27;99740.03;;;-0.46;100.00
68634;BME280;55625;47.072;22.192;2023-12-20T01:48:53;99736.84;;;-0.44;100.00
68634;BME280;55625;47.072;22.192;2023-12-20T01:51:19;99729.31;;;-0.44;100.00
68634;BME280;55625;47.072;22.192;2023-12-20T01:53:47;99723.72;;;-0.44;100.00
68634;BME280;55625;47.072;22.192;2023-12-20T01:56:14;99726.16;;;-0.39;100.00
68634;BME280;55625;47.072;22.192;2023-12-20T01:58:44;99722.56;;;-0.39;100.00
68634;BME280;55625;47.072;22.192;2023-12-20T02:01:12;99705.41;;;-0.45;100.00
68634;BME280;55625;47.072;22.192;2023-12-20T02:03:41;99703.03;;;-0.43;100.00
68634;BME280;55625;47.072;22.192;2023-12-20T02:06:07;99699.06;;;-0.42;100.00
68634;BME280;55625;47.072;22.192;2023-12-20T02:08:35;99699.41;;;-0.47;100.00
68634;BME280;55625;47.072;22.192;2023-12-20T02:11:01;99685.09;;;-0.45;100.00
68634;BME280;55625;47.072;22.192;2023-12-20T02:13:27;99678.66;;;-0.49;100.00
68634;BME280;55625;47.072;22.192;2023-12-20T02:15:54;99673.47;;;-0.51;100.00
68634;BME280;55625;47.072;22.192;2023-12-20T02:18:21;99670.69;;;-0.51;100.00
68634;BME280;55625;47.072;22.192;2023-12-20T02:20:47;99665.56;;;-0.45;100.00
68634;BME280;55625;47.072;22.192;2023-12-20T02:23:13;99657.25;;;-0.42;100.00
68634;BME280;55625;47.072;22.192;2023-12-20T02:25:38;99657.69;;;-0.36;100.00
68634;BME280;55625;47.072;22.192;2023-12-20T02:28:06;99651.31;;;-0.37;100.00
68634;BME280;55625;47.072;22.192;2023-12-20T02:30:32;99651.31;;;-0.37;100.00
68634;BME280;55625;47.072;22.192;2023-12-20T02:32:59;99650.56;;;-0.34;100.00
68634;BME280;55625;47.072;22.192;2023-12-20T02:35:26;99651.84;;;-0.27;100.00
68634;BME280;55625;47.072;22.192;2023-12-20T02:37:52;99646.25;;;-0.27;100.00
68634;BME280;55625;47.072;22.192;2023-12-20T02:40:18;99643.84;;;-0.29;100.00
68634;BME280;55625;47.072;22.192;2023-12-20T02:42:44;99650.63;;;-0.30;100.00
68634;BME280;55625;47.072;22.192;2023-12-20T02:45:10;99644.25;;;-0.30;100.00
68634;BME280;55625;47.072;22.192;2023-12-20T02:47:36;99640.28;;;-0.29;100.00
68634;BME280;55625;47.072;22.192;2023-12-20T02:50:02;99643.47;;;-0.27;100.00
68634;BME280;55625;47.072;22.192;2023-12-20T02:52:28;99649.09;;;-0.24;100.00
68634;BME280;55625;47.072;22.192;2023-12-20T02:54:54;99638.31;;;-0.25;100.00
68634;BME280;55625;47.072;22.192;2023-12-20T02:57:20;99647.03;;;-0.30;100.00
68634;BME280;55625;47.072;22.192;2023-12-20T02:59:46;99633.41;;;-0.36;100.00
68634;BME280;55625;47.072;22.192;2023-12-20T03:02:12;99643.47;;;-0.27;100.00
68634;BME280;55625;47.072;22.192;2023-12-20T03:04:38;99633.09;;;-0.30;100.00
68634;BME280;55625;47.072;22.192;2023-12-20T03:07:04;99626.66;;;-0.35;100.00
68634;BME280;55625;47.072;22.192;2023-12-20T03:09:30;99630.63;;;-0.36;100.00
68634;BME280;55625;47.072;22.192;2023-12-20T03:11:56;99627.00;;;-0.40;100.00
68634;BME280;55625;47.072;22.192;2023-12-20T03:14:22;99625.41;;;-0.41;100.00
68634;BME280;55625;47.072;22.192;2023-12-20T03:16:50;99629.81;;;-0.36;100.00
68634;BME280;55625;47.072;22.192;2023-12-20T03:19:17;99618.63;;;-0.40;100.00
68634;BME280;55625;47.072;22.192;2023-12-20T03:21:44;99616.63;;;-0.43;100.00
68634;BME280;55625;47.072;22.192;2023-12-20T03:24:10;99608.22;;;-0.46;100.00
68634;BME280;55625;47.072;22.192;2023-12-20T03:26:36;99612.19;;;-0.47;100.00
68634;BME280;55625;47.072;22.192;2023-12-20T03:29:02;99612.19;;;-0.47;100.00
68634;BME280;55625;47.072;22.192;2023-12-20T03:31:28;99603.44;;;-0.46;100.00
68634;BME280;55625;47.072;22.192;2023-12-20T03:33:54;99606.63;;;-0.47;100.00
68634;BME280;55625;47.072;22.192;2023-12-20T03:36:20;99600.22;;;-0.51;100.00
68634;BME280;55625;47.072;22.192;2023-12-20T03:38:46;99604.22;;;-0.49;100.00
68634;BME280;55625;47.072;22.192;2023-12-20T03:41:13;99600.22;;;-0.51;100.00
68634;BME280;55625;47.072;22.192;2023-12-20T03:43:39;99597.78;;;-0.56;100.00
68634;BME280;55625;47.072;22.192;2023-12-20T03:46:05;99596.94;;;-0.60;100.00
68634;BME280;55625;47.072;22.192;2023-12-20T03:48:31;99589.69;;;-0.65;100.00
68634;BME280;55625;47.072;22.192;2023-12-20T03:50:57;99582.91;;;-0.68;100.00
68634;BME280;55625;47.072;22.192;2023-12-20T03:53:23;99586.91;;;-0.65;100.00
68634;BME280;55625;47.072;22.192;2023-12-20T03:55:49;99586.53;;;-0.64;100.00
68634;BME280;55625;47.072;22.192;2023-12-20T03:58:15;99590.59;;;-0.57;100.00
68634;BME280;55625;47.072;22.192;2023-12-20T04:00:41;99583.88;;;-0.53;100.00
68634;BME280;55625;47.072;22.192;2023-12-20T04:03:07;99583.84;;;-0.56;100.00
68634;BME280;55625;47.072;22.192;2023-12-20T04:05:33;99584.25;;;-0.54;100.00
68634;BME280;55625;47.072;22.192;2023-12-20T04:08:01;99581.06;;;-0.56;100.00
68634;BME280;55625;47.072;22.192;2023-12-20T04:10:27;99578.66;;;-0.58;100.00
68634;BME280;55625;47.072;22.192;2023-12-20T04:12:53;99579.44;;;-0.57;100.00
68634;BME280;55625;47.072;22.192;2023-12-20T04:15:20;99574.19;;;-0.63;100.00
68634;BME280;55625;47.072;22.192;2023-12-20T04:17:46;99564.16;;;-0.71;100.00
68634;BME280;55625;47.072;22.192;2023-12-20T04:20:12;99564.91;;;-0.77;100.00
68634;BME280;55625;47.072;22.192;2023-12-20T04:22:38;99561.28;;;-0.81;100.00
68634;BME280;55625;47.072;22.192;2023-12-20T04:25:04;99553.69;;;-0.84;100.00
68634;BME280;55625;47.072;22.192;2023-12-20T04:27:30;99554.41;;;-0.91;100.00
68634;BME280;55625;47.072;22.192;2023-12-20T04:29:56;99556.75;;;-0.93;100.00
68634;BME280;55625;47.072;22.192;2023-12-20T04:32:22;99547.22;;;-0.92;100.00
68634;BME280;55625;47.072;22.192;2023-12-20T04:34:48;99535.28;;;-0.93;100.00
68634;BME280;55625;47.072;22.192;2023-12-20T04:37:14;99533.66;;;-0.94;100.00
68634;BME280;55625;47.072;22.192;2023-12-20T04:39:40;99530.09;;;-0.94;100.00
68634;BME280;55625;47.072;22.192;2023-12-20T04:42:07;99544.38;;;-0.96;100.00
68634;BME280;55625;47.072;22.192;2023-12-20T04:44:33;99528.38;;;-1.06;100.00
68634;BME280;55625;47.072;22.192;2023-12-20T04:46:59;99530.69;;;-1.11;100.00
68634;BME280;55625;47.072;22.192;2023-12-20T04:49:25;99523.50;;;-1.16;100.00
68634;BME280;55625;47.072;22.192;2023-12-20T04:51:51;99508.34;;;-1.18;100.00
68634;BME280;55625;47.072;22.192;2023-12-20T04:54:17;99505.16;;;-1.20;100.00
68634;BME280;55625;47.072;22.192;2023-12-20T04:56:43;99508.66;;;-1.23;100.00
68634;BME280;55625;47.072;22.192;2023-12-20T04:59:08;99508.19;;;-1.29;100.00
68634;BME280;55625;47.072;22.192;2023-12-20T05:01:34;99510.16;;;-1.33;100.00
68634;BME280;55625;47.072;22.192;2023-12-20T05:04:00;99507.31;;;-1.37;100.00
68634;BME280;55625;47.072;22.192;2023-12-20T05:06:26;99507.66;;;-1.42;100.00
68634;BME280;55625;47.072;22.192;2023-12-20T05:08:52;99508.03;;;-1.43;100.00
68634;BME280;55625;47.072;22.192;2023-12-20T05:11:18;99510.81;;;-1.43;100.00
68634;BME280;55625;47.072;22.192;2023-12-20T05:13:44;99513.59;;;-1.43;100.00
68634;BME280;55625;47.072;22.192;2023-12-20T05:16:09;99506.00;;;-1.46;100.00
68634;BME280;55625;47.072;22.192;2023-12-20T05:18:36;99504.38;;;-1.51;100.00
68634;BME280;55625;47.072;22.192;2023-12-20T05:21:02;99504.31;;;-1.54;100.00
68634;BME280;55625;47.072;22.192;2023-12-20T05:23:28;99510.66;;;-1.54;100.00
68634;BME280;55625;47.072;22.192;2023-12-20T05:25:54;99507.53;;;-1.52;100.00
68634;BME280;55625;47.072;22.192;2023-12-20T05:28:20;99493.25;;;-1.51;100.00
68634;BME280;55625;47.072;22.192;2023-12-20T05:30:46;99504.41;;;-1.47;100.00
68634;BME280;55625;47.072;22.192;2023-12-20T05:33:12;99501.25;;;-1.46;100.00
68634;BME280;55625;47.072;22.192;2023-12-20T05:35:38;99504.03;;;-1.46;100.00
68634;BME280;55625;47.072;22.192;2023-12-20T05:38:03;99502.47;;;-1.43;100.00
68634;BME280;55625;47.072;22.192;2023-12-20T05:40:29;99505.78;;;-1.31;100.00
68634;BME280;55625;47.072;22.192;2023-12-20T05:42:55;99507.16;;;-1.17;100.00
68634;BME280;55625;47.072;22.192;2023-12-20T05:45:21;99510.03;;;-1.10;100.00
68634;BME280;55625;47.072;22.192;2023-12-20T05:47:47;99503.31;;;-1.06;100.00
68634;BME280;55625;47.072;22.192;2023-12-20T05:50:13;99500.09;;;-1.08;100.00
68634;BME280;55625;47.072;22.192;2023-12-20T05:52:39;99501.72;;;-1.07;100.00
68634;BME280;55625;47.072;22.192;2023-12-20T05:55:05;99503.66;;;-1.11;100.00
68634;BME280;55625;47.072;22.192;2023-12-20T05:57:30;99505.22;;;-1.13;100.00
68634;BME280;55625;47.072;22.192;2023-12-20T05:59:56;99500.84;;;-1.14;100.00
68634;BME280;55625;47.072;22.192;2023-12-20T06:02:22;99487.25;;;-1.19;100.00
68634;BME280;55625;47.072;22.192;2023-12-20T06:04:48;99491.91;;;-1.27;100.00
68634;BME280;55625;47.072;22.192;2023-12-20T06:07:15;99491.06;;;-1.31;100.00
68634;BME280;55625;47.072;22.192;2023-12-20T06:09:41;99481.94;;;-1.32;100.00
68634;BME280;55625;47.072;22.192;2023-12-20T06:12:07;99484.75;;;-1.28;100.00
68634;BME280;55625;47.072;22.192;2023-12-20T06:14:34;99484.00;;;-1.25;100.00
68634;BME280;55625;47.072;22.192;2023-12-20T06:17:00;99494.28;;;-1.29;100.00
68634;BME280;55625;47.072;22.192;2023-12-20T06:19:29;99497.41;;;-1.34;100.00
68634;BME280;55625;47.072;22.192;2023-12-20T06:21:55;99496.19;;;-1.37;100.00
68634;BME280;55625;47.072;22.192;2023-12-20T06:24:21;99500.53;;;-1.39;100.00
68634;BME280;55625;47.072;22.192;2023-12-20T06:26:47;99497.31;;;-1.41;100.00
68634;BME280;55625;47.072;22.192;2023-12-20T06:29:13;99497.28;;;-1.45;100.00
68634;BME280;55625;47.072;22.192;2023-12-20T06:31:39;99497.25;;;-1.48;100.00
68634;BME280;55625;47.072;22.192;2023-12-20T06:34:05;99503.94;;;-1.53;100.00
68634;BME280;55625;47.072;22.192;2023-12-20T06:36:30;99503.13;;;-1.53;100.00
68634;BME280;55625;47.072;22.192;2023-12-20T06:38:56;99504.78;;;-1.49;100.00
68634;BME280;55625;47.072;22.192;2023-12-20T06:41:23;99502.06;;;-1.45;100.00
68634;BME280;55625;47.072;22.192;2023-12-20T06:43:50;99501.66;;;-1.44;100.00
68634;BME280;55625;47.072;22.192;2023-12-20T06:46:17;99501.75;;;-1.37;100.00
68634;BME280;55625;47.072;22.192;2023-12-20T06:48:43;99508.59;;;-1.31;100.00
68634;BME280;55625;47.072;22.192;2023-12-20T06:51:15;99504.75;;;-1.19;100.00
68634;BME280;55625;47.072;22.192;2023-12-20T06:53:41;99518.34;;;-1.14;100.00
68634;BME280;55625;47.072;22.192;2023-12-20T06:56:08;99522.72;;;-1.13;100.00
68634;BME280;55625;47.072;22.192;2023-12-20T06:58:34;99517.16;;;-1.13;100.00
68634;BME280;55625;47.072;22.192;2023-12-20T07:01:02;99513.16;;;-1.15;100.00
68634;BME280;55625;47.072;22.192;2023-12-20T07:03:28;99512.34;;;-1.16;100.00
68634;BME280;55625;47.072;22.192;2023-12-20T07:05:54;99511.94;;;-1.18;100.00
68634;BME280;55625;47.072;22.192;2023-12-20T07:08:20;99510.34;;;-1.19;100.00
68634;BME280;55625;47.072;22.192;2023-12-20T07:10:45;99509.09;;;-1.21;100.00
68634;BME280;55625;47.072;22.192;2023-12-20T07:13:12;99506.31;;;-1.21;100.00
68634;BME280;55625;47.072;22.192;2023-12-20T07:15:38;99509.53;;;-1.19;100.00
68634;BME280;55625;47.072;22.192;2023-12-20T07:18:05;99511.94;;;-1.18;100.00
68634;BME280;55625;47.072;22.192;2023-12-20T07:20:32;99505.22;;;-1.13;100.00
68634;BME280;55625;47.072;22.192;2023-12-20T07:22:58;99504.91;;;-1.05;100.00
68634;BME280;55625;47.072;22.192;2023-12-20T07:25:24;99500.19;;;-1.01;100.00
68634;BME280;55625;47.072;22.192;2023-12-20T07:27:50;99506.63;;;-0.93;100.00
68634;BME280;55625;47.072;22.192;2023-12-20T07:30:15;99496.38;;;-0.85;100.00
68634;BME280;55625;47.072;22.192;2023-12-20T07:32:41;99492.91;;;-0.72;100.00
68634;BME280;55625;47.072;22.192;2023-12-20T07:35:07;99495.88;;;-0.54;100.00
68634;BME280;55625;47.072;22.192;2023-12-20T07:37:33;99492.44;;;-0.37;100.00
68634;BME280;55625;47.072;22.192;2023-12-20T07:39:59;99484.16;;;-0.26;100.00
68634;BME280;55625;47.072;22.192;2023-12-20T07:42:25;99479.03;;;-0.17;100.00
68634;BME280;55625;47.072;22.192;2023-12-20T07:44:51;99479.50;;;-0.08;100.00
68634;BME280;55625;47.072;22.192;2023-12-20T07:47:17;99473.22;;;0.03;100.00
68634;BME280;55625;47.072;22.192;2023-12-20T07:49:50;99458.94;;;0.15;100.00
68634;BME280;55625;47.072;22.192;2023-12-20T07:52:18;99454.59;;;0.28;100.00
68634;BME280;55625;47.072;22.192;2023-12-20T07:54:45;99449.47;;;0.37;100.00
68634;BME280;55625;47.072;22.192;2023-12-20T07:57:12;99447.94;;;0.50;100.00
68634;BME280;55625;47.072;22.192;2023-12-20T07:59:38;99450.81;;;0.79;100.00
68634;BME280;55625;47.072;22.192;2023-12-20T08:02:04;99452.03;;;0.88;100.00
68634;BME280;55625;47.072;22.192;2023-12-20T08:04:30;99458.06;;;0.98;100.00
68634;BME280;55625;47.072;22.192;2023-12-20T08:06:56;99454.09;;;1.06;100.00
68634;BME280;55625;47.072;22.192;2023-12-20T08:09:22;99464.47;;;1.05;100.00
68634;BME280;55625;47.072;22.192;2023-12-20T08:11:48;99459.28;;;1.07;100.00
68634;BME280;55625;47.072;22.192;2023-12-20T08:14:15;99462.47;;;1.06;100.00
68634;BME280;55625;47.072;22.192;2023-12-20T08:16:41;99466.88;;;1.07;100.00
68634;BME280;55625;47.072;22.192;2023-12-20T08:19:07;99461.69;;;1.12;100.00
68634;BME280;55625;47.072;22.192;2023-12-20T08:21:33;99458.88;;;1.19;100.00
68634;BME280;55625;47.072;22.192;2023-12-20T08:23:59;99474.50;;;1.24;100.00
68634;BME280;55625;47.072;22.192;2023-12-20T08:26:26;99449.75;;;1.30;100.00
68634;BME280;55625;47.072;22.192;2023-12-20T08:28:52;99443.34;;;1.33;100.00
68634;BME280;55625;47.072;22.192;2023-12-20T08:31:18;99448.53;;;1.34;100.00
68634;BME280;55625;47.072;22.192;2023-12-20T08:33:46;99443.34;;;1.36;100.00
68634;BME280;55625;47.072;22.192;2023-12-20T08:36:13;99439.34;;;1.41;100.00
68634;BME280;55625;47.072;22.192;2023-12-20T08:38:39;99432.97;;;1.44;100.00
68634;BME280;55625;47.072;22.192;2023-12-20T08:41:06;99434.97;;;1.50;100.00
68634;BME280;55625;47.072;22.192;2023-12-20T08:43:33;99431.38;;;1.57;100.00
68634;BME280;55625;47.072;22.192;2023-12-20T08:46:01;99435.38;;;1.60;100.00
68634;BME280;55625;47.072;22.192;2023-12-20T08:48:28;99437.38;;;1.63;100.00
68634;BME280;55625;47.072;22.192;2023-12-20T08:50:54;99445.75;;;1.70;100.00
68634;BME280;55625;47.072;22.192;2023-12-20T08:53:20;99434.56;;;1.73;100.00
68634;BME280;55625;47.072;22.192;2023-12-20T08:55:46;99443.72;;;1.77;100.00
68634;BME280;55625;47.072;22.192;2023-12-20T08:58:13;99436.53;;;1.80;100.00
68634;BME280;55625;47.072;22.192;2023-12-20T09:00:39;99429.75;;;1.81;100.00
68634;BME280;55625;47.072;22.192;2023-12-20T09:03:05;99424.94;;;1.81;100.00
68634;BME280;55625;47.072;22.192;2023-12-20T09:05:31;99416.94;;;1.83;100.00
68634;BME280;55625;47.072;22.192;2023-12-20T09:07:57;99420.16;;;1.85;100.00
68634;BME280;55625;47.072;22.192;2023-12-20T09:10:23;99423.34;;;1.88;100.00
68634;BME280;55625;47.072;22.192;2023-12-20T09:12:53;99408.97;;;1.89;100.00
68634;BME280;55625;47.072;22.192;2023-12-20T09:15:26;99405.34;;;1.92;100.00
68634;BME280;55625;47.072;22.192;2023-12-20T09:17:53;99400.53;;;1.96;100.00
68634;BME280;55625;47.072;22.192;2023-12-20T09:20:19;99400.13;;;2.01;100.00
68634;BME280;55625;47.072;22.192;2023-12-20T09:22:45;99397.72;;;2.07;100.00
68634;BME280;55625;47.072;22.192;2023-12-20T09:25:11;99392.09;;;2.10;100.00
68634;BME280;55625;47.072;22.192;2023-12-20T09:27:38;99392.91;;;2.14;100.00
68634;BME280;55625;47.072;22.192;2023-12-20T09:30:05;99381.69;;;2.18;100.00
68634;BME280;55625;47.072;22.192;2023-12-20T09:32:31;99387.66;;;2.24;100.00
68634;BME280;55625;47.072;22.192;2023-12-20T09:34:57;99370.44;;;2.29;100.00
68634;BME280;55625;47.072;22.192;2023-12-20T09:37:27;99368.44;;;2.33;100.00
68634;BME280;55625;47.072;22.192;2023-12-20T09:39:53;99364.00;;;2.39;100.00
68634;BME280;55625;47.072;22.192;2023-12-20T09:45:26;99347.56;;;2.44;100.00
68634;BME280;55625;47.072;22.192;2023-12-20T09:47:55;99343.94;;;2.51;100.00
68634;BME280;55625;47.072;22.192;2023-12-20T09:50:22;99347.50;;;2.59;100.00
68634;BME280;55625;47.072;22.192;2023-12-20T09:52:53;99337.81;;;2.70;100.00
68634;BME280;55625;47.072;22.192;2023-12-20T09:55:20;99338.09;;;2.90;100.00
68634;BME280;55625;47.072;22.192;2023-12-20T09:57:49;99328.75;;;3.04;100.00
68634;BME280;55625;47.072;22.192;2023-12-20T10:00:16;99323.94;;;3.08;100.00
68634;BME280;55625;47.072;22.192;2023-12-20T10:02:57;99319.53;;;3.10;100.00
68634;BME280;55625;47.072;22.192;2023-12-20T10:05:34;99321.03;;;3.19;100.00
68634;BME280;55625;47.072;22.192;2023-12-20T10:08:01;99317.78;;;3.24;100.00
68634;BME280;55625;47.072;22.192;2023-12-20T10:10:27;99313.75;;;3.28;100.00
68634;BME280;55625;47.072;22.192;2023-12-20T10:13:07;99306.94;;;3.29;100.00
68634;BME280;55625;47.072;22.192;2023-12-20T10:15:34;99311.69;;;3.32;99.96
68634;BME280;55625;47.072;22.192;2023-12-20T10:18:04;99304.88;;;3.37;100.00
68634;BME280;55625;47.072;22.192;2023-12-20T10:20:31;99310.44;;;3.40;100.00
68634;BME280;55625;47.072;22.192;2023-12-20T10:22:59;99313.59;;;3.46;100.00
68634;BME280;55625;47.072;22.192;2023-12-20T10:25:26;99315.13;;;3.51;100.00
68634;BME280;55625;47.072;22.192;2023-12-20T10:28:13;99302.22;;;3.60;100.00
68634;BME280;55625;47.072;22.192;2023-12-20T10:30:40;99296.13;;;3.65;99.35
68634;BME280;55625;47.072;22.192;2023-12-20T10:33:07;99278.44;;;3.72;99.42
68634;BME280;55625;47.072;22.192;2023-12-20T10:35:37;99277.63;;;3.75;99.56
68634;BME280;55625;47.072;22.192;2023-12-20T10:38:06;99267.56;;;3.78;100.00
68634;BME280;55625;47.072;22.192;2023-12-20T10:40:36;99266.72;;;3.81;99.84
68634;BME280;55625;47.072;22.192;2023-12-20T10:43:03;99273.13;;;3.81;100.00
68634;BME280;55625;47.072;22.192;2023-12-20T10:45:29;99271.06;;;3.85;100.00
68634;BME280;55625;47.072;22.192;2023-12-20T10:47:56;99268.22;;;3.89;100.00
68634;BME280;55625;47.072;22.192;2023-12-20T10:50:26;99260.06;;;3.98;100.00
68634;BME280;55625;47.072;22.192;2023-12-20T10:52:52;99259.22;;;4.04;100.00
68634;BME280;55625;47.072;22.192;2023-12-20T10:55:25;99265.56;;;4.09;100.00
68634;BME280;55625;47.072;22.192;2023-12-20T10:57:51;99251.91;;;4.11;100.00
68634;BME280;55625;47.072;22.192;2023-12-20T11:00:19;99260.50;;;4.27;99.62
68634;BME280;55625;47.072;22.192;2023-12-20T11:02:49;99262.88;;;4.28;99.59
68634;BME280;55625;47.072;22.192;2023-12-20T11:06:00;99247.22;;;4.31;99.81
68634;BME280;55625;47.072;22.192;2023-12-20T11:11:34;99249.81;;;4.45;98.94
68634;BME280;55625;47.072;22.192;2023-12-20T11:14:08;99256.28;;;4.42;99.24
68634;BME280;55625;47.072;22.192;2023-12-20T11:16:39;99242.53;;;4.48;100.00
68634;BME280;55625;47.072;22.192;2023-12-20T11:19:06;99232.75;;;4.59;99.92
68634;BME280;55625;47.072;22.192;2023-12-20T11:21:33;99235.81;;;4.68;99.62
68634;BME280;55625;47.072;22.192;2023-12-20T11:24:03;99238.88;;;4.78;99.58
68634;BME280;55625;47.072;22.192;2023-12-20T11:26:29;99228.13;;;4.96;98.61
68634;BME280;55625;47.072;22.192;2023-12-20T11:35:00;99218.94;;;5.15;96.89
68634;BME280;55625;47.072;22.192;2023-12-20T11:37:35;99213.72;;;5.37;95.20
68634;BME280;55625;47.072;22.192;2023-12-20T11:40:07;99216.69;;;5.50;93.94
68634;BME280;55625;47.072;22.192;2023-12-20T11:42:43;99211.44;;;5.52;93.62
68634;BME280;55625;47.072;22.192;2023-12-20T11:45:23;99211.78;;;5.54;92.59
68634;BME280;55625;47.072;22.192;2023-12-20T11:47:51;99207.81;;;5.51;92.47
68634;BME280;55625;47.072;22.192;2023-12-20T11:50:20;99215.84;;;5.53;93.13
68634;BME280;55625;47.072;22.192;2023-12-20T11:52:46;99214.25;;;5.52;93.35
68634;BME280;55625;47.072;22.192;2023-12-20T11:55:13;99195.69;;;5.54;92.52
68634;BME280;55625;47.072;22.192;2023-12-20T11:57:39;99195.75;;;5.51;91.14
68634;BME280;55625;47.072;22.192;2023-12-20T12:00:06;99187.97;;;5.39;91.58
68634;BME280;55625;47.072;22.192;2023-12-20T12:02:32;99190.06;;;5.35;90.93
68634;BME280;55625;47.072;22.192;2023-12-20T12:05:00;99179.75;;;5.28;91.44
68634;BME280;55625;47.072;22.192;2023-12-20T12:07:25;99179.31;;;5.29;91.46
68634;BME280;55625;47.072;22.192;2023-12-20T12:09:52;99175.84;;;5.22;92.03
68634;BME280;55625;47.072;22.192;2023-12-20T12:12:18;99173.81;;;5.22;91.40
68634;BME280;55625;47.072;22.192;2023-12-20T12:14:45;99173.06;;;5.18;92.17
68634;BME280;55625;47.072;22.192;2023-12-20T12:17:15;99176.63;;;5.22;91.44
68634;BME280;55625;47.072;22.192;2023-12-20T12:19:43;99167.91;;;5.37;92.81
68634;BME280;55625;47.072;22.192;2023-12-20T12:22:12;99167.59;;;5.51;92.04
68634;BME280;55625;47.072;22.192;2023-12-20T12:24:48;99169.44;;;5.61;92.60
68634;BME280;55625;47.072;22.192;2023-12-20T12:27:16;99171.94;;;5.75;90.68
68634;BME280;55625;47.072;22.192;2023-12-20T12:30:01;99171.38;;;5.84;89.35
68634;BME280;55625;47.072;22.192;2023-12-20T12:32:29;99181.44;;;5.81;88.35
68634;BME280;55625;47.072;22.192;2023-12-20T12:34:55;99191.75;;;5.91;91.41
68634;BME280;55625;47.072;22.192;2023-12-20T12:37:22;99204.00;;;6.01;93.32
68634;BME280;55625;47.072;22.192;2023-12-20T12:39:50;99195.31;;;6.12;92.27
68634;BME280;55625;47.072;22.192;2023-12-20T12:42:15;99180.38;;;6.15;93.46
68634;BME280;55625;47.072;22.192;2023-12-20T12:44:41;99191.13;;;6.20;93.02
68634;BME280;55625;47.072;22.192;2023-12-20T12:47:07;99182.22;;;6.21;92.49
68634;BME280;55625;47.072;22.192;2023-12-20T12:49:33;99180.19;;;6.22;91.06
68634;BME280;55625;47.072;22.192;2023-12-20T12:51:59;99172.53;;;6.22;92.33
68634;BME280;55625;47.072;22.192;2023-12-20T12:54:25;99181.00;;;6.22;90.54
68634;BME280;55625;47.072;22.192;2023-12-20T12:56:51;99169.63;;;6.26;91.97